createdAt,value
2017-11-24T00:00:09.921Z,2
2017-11-24T00:10:10.900Z,3
2017-11-24T00:20:09.930Z,3
2017-11-24T00:30:09.830Z,3
2017-11-24T00:40:09.968Z,3
2017-11-24T00:50:09.900Z,3
2017-11-24T01:00:09.889Z,2
2017-11-24T01:10:10.692Z,4
2017-11-24T01:20:09.819Z,3
2017-11-24T01:30:09.921Z,3
2017-11-24T01:40:09.886Z,4
2017-11-24T01:50:09.928Z,3
2017-11-24T02:00:09.935Z,3
2017-11-24T02:10:09.989Z,3
2017-11-24T02:20:09.925Z,3
2017-11-24T02:30:10.011Z,4
2017-11-24T02:40:09.953Z,3
2017-11-24T02:50:10.055Z,3
2017-11-24T03:00:10.004Z,3
2017-11-24T03:10:09.953Z,3
2017-11-24T03:20:10.009Z,4
2017-11-24T03:30:10.061Z,2
2017-11-24T03:40:10.027Z,3
2017-11-24T03:50:09.971Z,3
2017-11-24T04:00:10.037Z,3
2017-11-24T04:10:09.999Z,2
2017-11-24T04:20:10.069Z,3
2017-11-24T04:30:10.061Z,3
2017-11-24T04:40:10.130Z,3
2017-11-24T04:50:10.046Z,3
2017-11-24T05:00:10.120Z,4
2017-11-24T05:10:10.093Z,3
2017-11-24T05:20:10.188Z,3
2017-11-24T05:30:10.086Z,4
2017-11-24T05:40:10.321Z,4
2017-11-24T05:50:10.137Z,4
2017-11-24T06:00:10.189Z,6
2017-11-24T06:10:10.753Z,7
2017-11-24T06:20:11.135Z,7
2017-11-24T06:30:10.234Z,6
2017-11-24T06:40:10.304Z,5
2017-11-24T06:50:10.664Z,5
2017-11-24T07:00:10.433Z,4
2017-11-24T07:10:10.296Z,7
2017-11-24T07:20:10.982Z,6
2017-11-24T07:30:10.353Z,6
2017-11-24T07:40:10.200Z,6
2017-11-24T07:50:10.215Z,6
2017-11-24T08:00:10.215Z,6
2017-11-24T08:10:10.193Z,5
2017-11-24T08:20:10.301Z,5
2017-11-24T08:30:10.156Z,5
2017-11-24T08:40:10.184Z,5
2017-11-24T08:50:10.228Z,4
2017-11-24T09:00:10.228Z,5
2017-11-24T09:10:10.365Z,7
2017-11-24T09:20:10.283Z,5
2017-11-24T09:30:10.286Z,5
2017-11-24T09:40:10.343Z,3
2017-11-24T09:50:10.359Z,4
2017-11-24T10:00:10.330Z,3
2017-11-24T10:10:10.407Z,3
2017-11-24T10:20:10.356Z,3
2017-11-24T10:30:10.373Z,3
2017-11-24T10:40:10.386Z,3
2017-11-24T10:50:10.401Z,3
2017-11-24T11:00:10.387Z,3
2017-11-24T11:10:10.462Z,3
2017-11-24T11:20:10.441Z,3
2017-11-24T11:30:10.369Z,4
2017-11-24T11:40:10.425Z,3
2017-11-24T11:50:10.441Z,4
2017-11-24T12:00:10.491Z,4
2017-11-24T12:10:10.489Z,5
2017-11-24T12:20:10.437Z,5
2017-11-24T12:30:10.487Z,5
2017-11-24T12:40:10.483Z,5
2017-11-24T12:50:10.482Z,6
2017-11-24T13:00:10.558Z,6
2017-11-24T13:10:10.494Z,4
2017-11-24T13:20:10.464Z,3
2017-11-24T13:30:10.580Z,3
2017-11-24T13:40:10.537Z,4
2017-11-24T13:50:10.506Z,5
2017-11-24T14:00:10.506Z,6
2017-11-24T14:10:10.550Z,6
2017-11-24T14:20:10.684Z,7
2017-11-24T14:30:10.537Z,7
2017-11-24T14:40:10.555Z,8
2017-11-24T14:50:10.591Z,8
2017-11-24T15:00:11.268Z,8
2017-11-24T15:10:10.622Z,10
2017-11-24T15:20:10.612Z,10
2017-11-24T15:30:10.672Z,10
2017-11-24T15:40:10.634Z,10
2017-11-24T15:50:10.608Z,12
2017-11-24T16:00:28.043Z,12
2017-11-24T16:10:10.712Z,12
2017-11-24T16:20:10.719Z,13
2017-11-24T16:30:10.769Z,13
2017-11-24T16:40:10.791Z,13
2017-11-24T16:50:10.673Z,12
2017-11-24T17:00:10.906Z,14
2017-11-24T17:10:10.789Z,14
2017-11-24T17:20:10.895Z,15
2017-11-24T17:30:10.759Z,15
2017-11-24T17:40:10.922Z,13
2017-11-24T17:50:11.377Z,13
2017-11-24T18:00:10.711Z,14
2017-11-24T18:10:10.769Z,15
2017-11-24T18:20:10.782Z,15
2017-11-24T18:30:10.807Z,18
2017-11-24T18:40:10.804Z,19
2017-11-24T18:50:10.803Z,19
2017-11-24T19:00:11.310Z,16
2017-11-24T19:10:10.812Z,19
2017-11-24T19:20:10.816Z,19
2017-11-24T19:30:11.108Z,20
2017-11-24T19:40:10.829Z,17
2017-11-24T19:50:11.298Z,17
2017-11-24T20:00:10.832Z,23
2017-11-24T20:10:11.014Z,28
2017-11-24T20:20:11.100Z,26
2017-11-24T20:30:11.029Z,25
2017-11-24T20:40:11.472Z,25
2017-11-24T20:50:12.342Z,26
2017-11-24T21:00:11.183Z,23
2017-11-24T21:10:11.087Z,22
2017-11-24T21:20:11.775Z,21
2017-11-24T21:30:11.867Z,22
2017-11-24T21:40:11.196Z,22
2017-11-24T21:50:11.190Z,22
2017-11-24T22:00:11.241Z,22
2017-11-24T22:10:11.336Z,23
2017-11-24T22:20:10.945Z,27
2017-11-24T22:30:10.918Z,22
2017-11-24T22:40:10.934Z,22
2017-11-24T22:50:11.049Z,22
2017-11-24T23:00:10.935Z,23
2017-11-24T23:10:10.950Z,24
2017-11-24T23:20:10.995Z,23
2017-11-24T23:30:11.187Z,24
2017-11-24T23:40:11.055Z,20
2017-11-24T23:50:10.998Z,25
